createdAt,value
2024-04-19T00:00:37.105Z,160.67
2024-04-19T00:01:39.442Z,161.00
2024-04-19T00:02:41.521Z,160.17
2024-04-19T00:03:43.739Z,151.67
2024-04-19T00:04:45.928Z,124.00
2024-04-19T00:05:48.614Z,112.67
2024-04-19T00:07:08.822Z,122.33
2024-04-19T00:08:19.988Z,126.00
2024-04-19T00:09:22.043Z,134.83
2024-04-19T00:10:24.494Z,141.00
2024-04-19T00:11:26.575Z,142.00
2024-04-19T00:12:29.719Z,142.00
2024-04-19T00:13:31.835Z,142.00
2024-04-19T00:14:34.098Z,142.00
2024-04-19T00:15:38.544Z,139.00
2024-04-19T00:16:40.616Z,133.33
2024-04-19T00:17:42.683Z,131.50
2024-04-19T00:19:05.155Z,124.00
2024-04-19T00:20:07.500Z,116.17
2024-04-19T00:21:09.682Z,107.00
2024-04-19T00:22:11.728Z,103.50
2024-04-19T00:23:13.789Z,101.50
2024-04-19T00:24:15.874Z,98.67
2024-04-19T00:25:17.912Z,97.17
2024-04-19T00:26:22.155Z,96.50
2024-04-19T00:27:24.265Z,93.33
2024-04-19T00:28:27.311Z,95.50
2024-04-19T00:29:29.365Z,97.00
2024-04-19T00:30:31.741Z,97.00
2024-04-19T00:31:33.777Z,95.00
2024-04-19T00:32:35.875Z,94.33
2024-04-19T00:33:38.307Z,96.17
2024-04-19T00:34:40.606Z,98.17
2024-04-19T00:35:43.465Z,99.67
2024-04-19T00:36:45.597Z,100.00
2024-04-19T00:37:47.681Z,100.67
2024-04-19T00:39:07.823Z,101.00
2024-04-19T00:40:10.020Z,99.67
2024-04-19T00:41:12.074Z,99.67
2024-04-19T00:42:14.336Z,107.33
2024-04-19T00:43:16.404Z,128.83
2024-04-19T00:44:18.471Z,137.50
2024-04-19T00:45:35.175Z,136.50
2024-04-19T00:46:37.880Z,128.33
2024-04-19T00:48:01.372Z,126.17
2024-04-19T00:49:23.407Z,130.17
2024-04-19T00:50:25.670Z,130.67
2024-04-19T00:51:27.744Z,129.67
2024-04-19T00:52:29.786Z,128.50
2024-04-19T00:53:33.550Z,128.50
2024-04-19T00:54:54.392Z,129.00
2024-04-19T00:55:58.426Z,129.17
2024-04-19T00:57:01.544Z,136.33
2024-04-19T00:58:04.206Z,144.17
2024-04-19T00:59:06.823Z,139.67
2024-04-19T01:00:09.861Z,137.83
2024-04-19T01:01:12.815Z,132.33
2024-04-19T01:02:16.009Z,116.17
2024-04-19T01:03:18.164Z,101.83
2024-04-19T01:04:21.074Z,99.00
2024-04-19T01:05:23.681Z,96.33
2024-04-19T01:06:25.828Z,95.83
2024-04-19T01:07:27.885Z,97.00
2024-04-19T01:08:30.677Z,96.33
2024-04-19T01:09:32.754Z,96.00
2024-04-19T01:10:36.333Z,96.00
2024-04-19T01:11:38.400Z,95.33
2024-04-19T01:12:40.945Z,94.00
2024-04-19T01:13:43.410Z,94.67
2024-04-19T01:14:46.017Z,93.83
2024-04-19T01:15:48.179Z,90.33
2024-04-19T01:16:50.276Z,90.17
2024-04-19T01:17:52.417Z,91.33
2024-04-19T01:18:54.824Z,92.50
2024-04-19T01:19:56.861Z,94.33
2024-04-19T01:21:21.250Z,104.00
2024-04-19T01:22:23.298Z,107.67
2024-04-19T01:23:25.672Z,108.00
2024-04-19T01:24:35.937Z,107.33
2024-04-19T01:25:39.188Z,106.83
2024-04-19T01:26:41.249Z,106.00
2024-04-19T01:27:43.367Z,105.00
2024-04-19T01:28:45.405Z,105.83
2024-04-19T01:29:47.492Z,107.50
2024-04-19T01:30:49.581Z,111.67
2024-04-19T01:31:51.634Z,113.83
2024-04-19T01:32:53.805Z,112.00
2024-04-19T01:33:55.996Z,104.00
2024-04-19T01:34:58.037Z,96.00
2024-04-19T01:36:00.109Z,94.50
2024-04-19T01:37:21.940Z,95.67
2024-04-19T01:38:23.985Z,97.17
2024-04-19T01:39:26.208Z,98.00
2024-04-19T01:40:28.390Z,98.00
2024-04-19T01:41:30.448Z,96.50
2024-04-19T01:42:32.724Z,94.50
2024-04-19T01:43:37.866Z,93.83
2024-04-19T01:44:39.914Z,93.00
2024-04-19T01:45:41.998Z,92.33
2024-04-19T01:46:44.055Z,92.00
2024-04-19T01:47:46.755Z,92.00
2024-04-19T01:48:48.915Z,91.33
2024-04-19T01:49:51.173Z,89.17
2024-04-19T01:50:53.233Z,89.00
2024-04-19T01:51:55.280Z,89.67
2024-04-19T01:52:57.416Z,90.50
2024-04-19T01:53:59.457Z,91.00
2024-04-19T01:55:02.222Z,91.67
2024-04-19T01:56:04.348Z,92.50
2024-04-19T01:57:15.460Z,94.00
2024-04-19T01:58:17.505Z,95.67
2024-04-19T01:59:19.557Z,97.17
2024-04-19T02:00:21.716Z,98.67
2024-04-19T02:01:23.830Z,99.50
2024-04-19T02:02:27.092Z,100.67
2024-04-19T02:03:29.167Z,103.50
2024-04-19T02:04:34.454Z,105.83
2024-04-19T02:05:36.539Z,109.83
2024-04-19T02:06:38.630Z,112.00
2024-04-19T02:08:00.625Z,116.00
2024-04-19T02:09:03.906Z,118.50
2024-04-19T02:10:07.907Z,118.00
2024-04-19T02:11:10.071Z,116.50
2024-04-19T02:12:12.207Z,117.00
2024-04-19T02:13:14.333Z,117.50
2024-04-19T02:14:16.554Z,118.00
2024-04-19T02:15:19.672Z,118.17
2024-04-19T02:16:22.828Z,118.00
2024-04-19T02:17:25.428Z,118.83
2024-04-19T02:18:27.528Z,120.33
2024-04-19T02:19:36.022Z,121.50
2024-04-19T02:20:38.098Z,131.00
2024-04-19T02:21:40.673Z,145.83
2024-04-19T02:22:42.794Z,149.00
2024-04-19T02:23:45.756Z,149.50
2024-04-19T02:24:47.867Z,163.50
2024-04-19T02:25:49.934Z,184.17
2024-04-19T02:26:52.332Z,185.00
2024-04-19T02:28:12.756Z,190.67
2024-04-19T02:29:33.605Z,200.33
2024-04-19T02:30:54.321Z,196.67
2024-04-19T02:31:56.422Z,204.67
2024-04-19T02:32:58.551Z,217.33
2024-04-19T02:34:02.701Z,226.83
2024-04-19T02:35:04.795Z,233.83
2024-04-19T02:36:07.515Z,237.00
2024-04-19T02:37:09.588Z,243.83
2024-04-19T02:38:11.644Z,247.00
2024-04-19T02:39:13.834Z,253.33
2024-04-19T02:40:15.898Z,251.83
2024-04-19T02:41:17.995Z,244.50
2024-04-19T02:42:20.062Z,235.83
2024-04-19T02:43:28.417Z,231.33
2024-04-19T02:44:36.332Z,229.50
2024-04-19T02:45:47.614Z,225.67
2024-04-19T02:46:54.930Z,209.67
2024-04-19T02:47:56.976Z,204.83
2024-04-19T02:48:59.039Z,204.67
2024-04-19T02:50:01.080Z,205.50
2024-04-19T02:51:03.565Z,209.17
2024-04-19T02:52:05.732Z,217.33
2024-04-19T02:53:07.773Z,218.00
2024-04-19T02:54:09.843Z,217.67
2024-04-19T02:55:11.892Z,212.83
2024-04-19T02:56:14.161Z,200.67
2024-04-19T02:57:16.229Z,196.00
2024-04-19T02:58:18.542Z,197.00
2024-04-19T02:59:20.600Z,199.00
2024-04-19T03:00:22.680Z,196.83
2024-04-19T03:01:24.798Z,192.33
2024-04-19T03:02:27.046Z,187.83
2024-04-19T03:03:29.202Z,186.67
2024-04-19T03:04:31.324Z,189.17
2024-04-19T03:05:33.378Z,190.83
2024-04-19T03:06:35.677Z,191.83
2024-04-19T03:07:37.749Z,193.00
2024-04-19T03:08:41.026Z,192.67
2024-04-19T03:09:43.166Z,191.83
2024-04-19T03:10:45.249Z,193.00
2024-04-19T03:11:47.303Z,192.17
2024-04-19T03:12:49.782Z,192.00
2024-04-19T03:13:51.916Z,192.00
2024-04-19T03:14:53.980Z,193.33
2024-04-19T03:16:08.416Z,195.33
2024-04-19T03:17:16.087Z,197.50
2024-04-19T03:18:18.245Z,199.17
2024-04-19T03:19:20.306Z,205.83
2024-04-19T03:20:22.362Z,210.00
2024-04-19T03:21:24.462Z,208.83
2024-04-19T03:22:26.741Z,207.83
2024-04-19T03:23:29.022Z,207.00
2024-04-19T03:24:31.134Z,206.33
2024-04-19T03:25:36.914Z,208.67
2024-04-19T03:26:38.982Z,218.83
2024-04-19T03:27:41.094Z,216.00
2024-04-19T03:28:43.393Z,214.50
2024-04-19T03:29:49.591Z,213.50
2024-04-19T03:30:51.730Z,211.50
2024-04-19T03:31:53.794Z,210.83
2024-04-19T03:32:55.954Z,222.00
2024-04-19T03:33:58.118Z,231.17
2024-04-19T03:35:00.265Z,226.17
2024-04-19T03:36:08.425Z,223.50
2024-04-19T03:37:10.485Z,224.17
2024-04-19T03:38:14.484Z,231.33
2024-04-19T03:39:17.020Z,237.00
2024-04-19T03:40:19.202Z,236.33
2024-04-19T03:41:21.271Z,232.83
2024-04-19T03:42:23.473Z,231.00
2024-04-19T03:43:32.419Z,228.00
2024-04-19T03:44:53.077Z,217.33
2024-04-19T03:45:55.152Z,202.33
2024-04-19T03:46:57.251Z,203.67
2024-04-19T03:48:00.002Z,202.67
2024-04-19T03:49:02.065Z,202.83
2024-04-19T03:50:04.386Z,194.83
2024-04-19T03:51:06.552Z,185.67
2024-04-19T03:52:08.592Z,183.67
2024-04-19T03:53:10.671Z,180.50
2024-04-19T03:54:12.751Z,180.17
2024-04-19T03:55:14.830Z,184.83
2024-04-19T03:56:16.898Z,187.00
2024-04-19T03:57:19.015Z,188.50
2024-04-19T03:58:21.055Z,189.50
2024-04-19T03:59:23.123Z,191.50
2024-04-19T04:00:45.156Z,194.67
2024-04-19T04:01:49.805Z,196.67
2024-04-19T04:02:52.578Z,197.67
2024-04-19T04:03:54.958Z,198.00
2024-04-19T04:04:57.088Z,197.17
2024-04-19T04:05:59.236Z,196.83
2024-04-19T04:07:01.350Z,194.17
2024-04-19T04:08:03.745Z,191.00
2024-04-19T04:09:05.829Z,190.00
2024-04-19T04:10:07.999Z,188.67
2024-04-19T04:11:12.378Z,188.83
2024-04-19T04:12:14.498Z,189.67
2024-04-19T04:13:16.562Z,189.33
2024-04-19T04:14:18.621Z,183.00
2024-04-19T04:15:20.699Z,179.17
2024-04-19T04:16:22.755Z,179.67
2024-04-19T04:17:24.848Z,179.50
2024-04-19T04:18:27.262Z,175.33
2024-04-19T04:19:29.463Z,164.83
2024-04-19T04:20:31.540Z,161.50
2024-04-19T04:21:33.945Z,163.83
2024-04-19T04:22:36.471Z,163.50
2024-04-19T04:23:38.580Z,160.33
2024-04-19T04:24:40.670Z,158.67
2024-04-19T04:25:42.732Z,161.00
2024-04-19T04:26:44.816Z,160.83
2024-04-19T04:27:46.992Z,159.17
2024-04-19T04:28:49.101Z,155.50
2024-04-19T04:29:51.182Z,157.17
2024-04-19T04:30:53.322Z,168.83
2024-04-19T04:31:55.610Z,190.00
2024-04-19T04:32:57.703Z,219.83
2024-04-19T04:33:59.774Z,245.50
2024-04-19T04:35:01.834Z,248.83
2024-04-19T04:36:04.174Z,298.33
2024-04-19T04:37:06.244Z,375.83
2024-04-19T04:38:08.394Z,397.50
2024-04-19T04:39:10.438Z,413.67
2024-04-19T04:40:12.506Z,452.00
2024-04-19T04:41:15.078Z,456.50
2024-04-19T04:42:17.241Z,433.50
2024-04-19T04:43:19.338Z,408.67
2024-04-19T04:44:22.428Z,381.83
2024-04-19T04:45:24.719Z,355.33
2024-04-19T04:46:26.775Z,339.83
2024-04-19T04:47:28.927Z,308.00
2024-04-19T04:48:31.064Z,287.83
2024-04-19T04:49:33.119Z,269.17
2024-04-19T04:50:35.176Z,262.00
2024-04-19T04:51:37.284Z,259.17
2024-04-19T04:52:39.338Z,249.83
2024-04-19T04:53:41.394Z,234.00
2024-04-19T04:54:43.505Z,224.33
2024-04-19T04:55:45.611Z,221.67
2024-04-19T04:56:47.663Z,223.83
2024-04-19T04:57:49.735Z,224.83
2024-04-19T04:58:51.849Z,222.50
2024-04-19T04:59:54.084Z,213.83
2024-04-19T05:00:56.534Z,207.50
2024-04-19T05:01:58.660Z,200.83
2024-04-19T05:03:05.671Z,200.33
2024-04-19T05:04:08.505Z,200.50
2024-04-19T05:05:10.548Z,196.83
2024-04-19T05:06:13.498Z,186.67
2024-04-19T05:07:15.544Z,181.67
2024-04-19T05:08:17.627Z,179.00
2024-04-19T05:09:19.701Z,171.50
2024-04-19T05:10:21.769Z,166.50
2024-04-19T05:11:23.887Z,159.83
2024-04-19T05:12:26.017Z,157.50
2024-04-19T05:13:28.104Z,155.33
2024-04-19T05:14:30.183Z,148.33
2024-04-19T05:15:32.234Z,142.00
2024-04-19T05:16:34.264Z,136.50
2024-04-19T05:17:36.979Z,145.17
2024-04-19T05:18:39.130Z,154.83
2024-04-19T05:19:41.205Z,155.83
2024-04-19T05:20:45.370Z,158.83
2024-04-19T05:21:47.558Z,160.00
2024-04-19T05:22:49.660Z,158.00
2024-04-19T05:23:51.709Z,147.67
2024-04-19T05:24:54.076Z,136.17
2024-04-19T05:25:56.120Z,134.00
2024-04-19T05:26:58.204Z,134.00
2024-04-19T05:28:00.263Z,136.50
2024-04-19T05:29:02.957Z,141.33
2024-04-19T05:30:05.606Z,142.83
2024-04-19T05:31:07.665Z,138.33
2024-04-19T05:32:09.739Z,119.50
2024-04-19T05:33:11.808Z,113.33
2024-04-19T05:34:13.888Z,116.50
2024-04-19T05:35:15.959Z,117.83
2024-04-19T05:36:18.068Z,114.67
2024-04-19T05:37:20.801Z,110.17
2024-04-19T05:38:23.039Z,101.00
2024-04-19T05:39:25.189Z,100.17
2024-04-19T05:40:27.444Z,108.17
2024-04-19T05:41:29.520Z,109.50
2024-04-19T05:42:34.764Z,98.33
2024-04-19T05:43:37.134Z,88.00
2024-04-19T05:44:39.205Z,83.33
2024-04-19T05:45:42.317Z,85.83
2024-04-19T05:46:47.186Z,87.17
2024-04-19T05:47:49.382Z,86.67
2024-04-19T05:48:51.668Z,90.83
2024-04-19T05:49:53.763Z,89.83
2024-04-19T05:50:55.820Z,80.00
2024-04-19T05:51:57.982Z,78.00
2024-04-19T05:53:00.055Z,83.33
2024-04-19T05:54:02.293Z,85.50
2024-04-19T05:55:04.937Z,86.67
2024-04-19T05:56:07.277Z,87.67
2024-04-19T05:57:09.325Z,89.00
2024-04-19T05:58:12.455Z,91.17
2024-04-19T05:59:14.503Z,92.50
2024-04-19T06:00:16.660Z,94.00
2024-04-19T06:01:18.937Z,92.33
2024-04-19T06:02:21.086Z,92.50
2024-04-19T06:03:23.204Z,100.67
2024-04-19T06:04:25.287Z,103.33
2024-04-19T06:05:27.331Z,104.00
2024-04-19T06:06:29.438Z,104.67
2024-04-19T06:07:31.559Z,104.83
2024-04-19T06:08:33.612Z,106.00
2024-04-19T06:09:35.753Z,105.17
2024-04-19T06:10:37.818Z,104.00
2024-04-19T06:11:39.895Z,104.50
2024-04-19T06:12:42.709Z,109.17
2024-04-19T06:13:44.880Z,111.50
2024-04-19T06:14:47.005Z,110.17
2024-04-19T06:15:50.395Z,110.00
2024-04-19T06:16:52.514Z,110.00
2024-04-19T06:17:54.630Z,110.33
2024-04-19T06:18:56.841Z,109.83
2024-04-19T06:19:59.635Z,106.17
2024-04-19T06:21:01.665Z,99.17
2024-04-19T06:22:03.839Z,97.33
2024-04-19T06:23:05.929Z,96.33
2024-04-19T06:24:07.981Z,93.33
2024-04-19T06:25:10.064Z,84.83
2024-04-19T06:26:12.144Z,80.17
2024-04-19T06:27:14.196Z,76.67
2024-04-19T06:28:16.265Z,68.83
2024-04-19T06:29:18.328Z,114.50
2024-04-19T06:30:20.417Z,187.50
2024-04-19T06:31:22.794Z,179.50
2024-04-19T06:32:24.856Z,139.17
2024-04-19T06:33:27.313Z,120.17
2024-04-19T06:34:29.510Z,89.83
2024-04-19T06:35:33.398Z,77.67
2024-04-19T06:36:35.500Z,74.33
2024-04-19T06:37:37.563Z,70.83
2024-04-19T06:38:42.725Z,65.67
2024-04-19T06:39:54.617Z,58.33
2024-04-19T06:41:04.525Z,55.17
2024-04-19T06:42:06.595Z,52.67
2024-04-19T06:43:09.051Z,51.33
2024-04-19T06:44:11.105Z,50.83
2024-04-19T06:45:13.165Z,49.50
2024-04-19T06:46:16.596Z,48.17
2024-04-19T06:47:18.658Z,44.33
2024-04-19T06:48:20.857Z,49.33
2024-04-19T06:49:23.652Z,52.00
2024-04-19T06:50:26.002Z,53.00
2024-04-19T06:51:28.121Z,52.17
2024-04-19T06:52:30.709Z,47.50
2024-04-19T06:53:32.785Z,42.67
2024-04-19T06:54:34.841Z,43.17
2024-04-19T06:55:36.942Z,43.17
2024-04-19T06:56:38.985Z,42.00
2024-04-19T06:57:41.081Z,42.00
2024-04-19T06:58:48.629Z,40.33
2024-04-19T06:59:52.105Z,40.00
2024-04-19T07:01:11.687Z,41.67
2024-04-19T07:02:18.768Z,44.50
2024-04-19T07:03:21.003Z,45.50
2024-04-19T07:04:23.223Z,46.67
2024-04-19T07:05:26.020Z,47.00
2024-04-19T07:06:38.367Z,47.50
2024-04-19T07:07:48.488Z,47.33
2024-04-19T07:08:50.548Z,47.50
2024-04-19T07:09:54.168Z,50.50
2024-04-19T07:10:56.270Z,53.00
2024-04-19T07:11:58.313Z,78.50
2024-04-19T07:13:00.812Z,86.50
2024-04-19T07:14:03.009Z,75.17
2024-04-19T07:15:05.424Z,71.67
2024-04-19T07:16:07.506Z,69.33
2024-04-19T07:17:09.624Z,66.33
2024-04-19T07:18:12.842Z,63.00
2024-04-19T07:19:14.931Z,59.17
2024-04-19T07:20:17.027Z,54.50
2024-04-19T07:21:19.138Z,53.33
2024-04-19T07:22:21.201Z,60.33
2024-04-19T07:23:23.551Z,70.83
2024-04-19T07:24:25.657Z,69.67
2024-04-19T07:25:27.827Z,67.50
2024-04-19T07:26:30.588Z,62.17
2024-04-19T07:27:39.055Z,60.00
2024-04-19T07:28:44.925Z,60.67
2024-04-19T07:29:47.009Z,61.00
2024-04-19T07:30:49.582Z,82.00
2024-04-19T07:31:51.640Z,85.67
2024-04-19T07:32:53.777Z,78.50
2024-04-19T07:33:56.029Z,76.50
2024-04-19T07:35:04.591Z,76.00
2024-04-19T07:36:06.957Z,75.00
2024-04-19T07:37:08.995Z,73.50
2024-04-19T07:38:11.886Z,72.67
2024-04-19T07:39:13.915Z,72.00
2024-04-19T07:40:16.186Z,72.83
2024-04-19T07:41:18.832Z,72.67
2024-04-19T07:42:20.866Z,72.17
2024-04-19T07:43:23.573Z,74.33
2024-04-19T07:44:25.617Z,75.00
2024-04-19T07:45:27.708Z,75.67
2024-04-19T07:46:29.751Z,81.00
2024-04-19T07:47:31.829Z,94.33
2024-04-19T07:48:34.077Z,98.17
2024-04-19T07:49:36.207Z,92.17
2024-04-19T07:50:39.888Z,88.33
2024-04-19T07:51:42.611Z,80.33
2024-04-19T07:52:47.301Z,70.17
2024-04-19T07:53:49.574Z,70.17
2024-04-19T07:54:51.709Z,71.67
2024-04-19T07:55:54.018Z,71.00
2024-04-19T07:56:56.293Z,63.83
2024-04-19T07:57:58.474Z,59.00
2024-04-19T07:59:00.549Z,54.17
2024-04-19T08:00:04.890Z,49.83
2024-04-19T08:01:14.394Z,46.67
2024-04-19T08:02:17.779Z,48.67
2024-04-19T08:03:20.151Z,49.50
2024-04-19T08:04:22.342Z,45.83
2024-04-19T08:05:24.405Z,40.67
2024-04-19T08:06:26.450Z,36.50
2024-04-19T08:07:38.611Z,36.33
2024-04-19T08:08:42.151Z,38.33
2024-04-19T08:09:44.189Z,35.50
2024-04-19T08:10:46.210Z,32.50
2024-04-19T08:11:49.053Z,29.67
2024-04-19T08:12:51.157Z,28.67
2024-04-19T08:13:53.269Z,31.00
2024-04-19T08:14:55.290Z,32.00
2024-04-19T08:15:57.423Z,31.17
2024-04-19T08:16:59.485Z,31.67
2024-04-19T08:18:01.605Z,32.00
2024-04-19T08:19:04.784Z,32.00
2024-04-19T08:20:07.818Z,30.67
2024-04-19T08:21:09.859Z,31.17
2024-04-19T08:22:12.124Z,32.83
2024-04-19T08:23:15.000Z,33.00
2024-04-19T08:24:17.846Z,32.83
2024-04-19T08:25:19.872Z,31.00
2024-04-19T08:26:21.921Z,29.33
2024-04-19T08:27:24.259Z,29.00
2024-04-19T08:28:27.682Z,28.67
2024-04-19T08:29:35.551Z,28.00
2024-04-19T08:30:38.416Z,28.00
2024-04-19T08:31:41.304Z,28.17
2024-04-19T08:32:43.407Z,31.50
2024-04-19T08:33:45.799Z,38.17
2024-04-19T08:34:48.751Z,44.50
2024-04-19T08:35:57.493Z,46.67
2024-04-19T08:37:01.916Z,49.67
2024-04-19T08:38:04.041Z,49.33
2024-04-19T08:39:06.360Z,50.00
2024-04-19T08:40:14.624Z,58.83
2024-04-19T08:41:19.354Z,80.50
2024-04-19T08:42:21.841Z,92.33
2024-04-19T08:43:26.108Z,103.33
2024-04-19T08:44:28.545Z,106.83
2024-04-19T08:45:32.880Z,108.67
2024-04-19T08:46:36.420Z,112.50
2024-04-19T08:47:38.800Z,130.67
2024-04-19T08:48:42.915Z,141.33
2024-04-19T08:49:45.682Z,147.00
2024-04-19T08:50:49.833Z,159.67
2024-04-19T08:52:01.366Z,157.67
2024-04-19T08:53:16.821Z,156.33
2024-04-19T08:54:20.712Z,182.33
2024-04-19T08:55:25.028Z,212.50
2024-04-19T08:56:27.914Z,237.67
2024-04-19T08:57:30.202Z,221.17
2024-04-19T08:58:32.591Z,224.17
2024-04-19T08:59:34.731Z,224.83
2024-04-19T09:00:36.903Z,206.17
2024-04-19T09:01:39.079Z,203.67
2024-04-19T09:02:41.562Z,200.83
2024-04-19T09:03:43.781Z,199.17
2024-04-19T09:04:46.113Z,195.33
2024-04-19T09:05:48.356Z,193.50
2024-04-19T09:06:51.772Z,192.17
2024-04-19T09:07:54.038Z,192.50
2024-04-19T09:08:56.625Z,212.83
2024-04-19T09:10:03.350Z,231.33
2024-04-19T09:11:14.484Z,262.50
2024-04-19T09:12:17.312Z,297.00
2024-04-19T09:13:19.398Z,279.50
2024-04-19T09:14:21.491Z,255.83
2024-04-19T09:15:27.608Z,243.67
2024-04-19T09:16:32.498Z,260.33
2024-04-19T09:17:34.731Z,275.00
2024-04-19T09:18:37.324Z,263.33
2024-04-19T09:19:39.424Z,255.33
2024-04-19T09:20:45.022Z,252.33
2024-04-19T09:21:47.168Z,254.17
2024-04-19T09:22:50.220Z,257.83
2024-04-19T09:23:52.305Z,265.50
2024-04-19T09:24:54.917Z,271.67
2024-04-19T09:25:59.849Z,278.67
2024-04-19T09:27:14.094Z,278.33
2024-04-19T09:28:19.471Z,273.17
2024-04-19T09:29:21.744Z,292.17
2024-04-19T09:30:24.627Z,296.00
2024-04-19T09:31:27.275Z,297.33
2024-04-19T09:32:29.410Z,291.17
2024-04-19T09:33:31.975Z,295.33
2024-04-19T09:34:34.299Z,302.67
2024-04-19T09:35:38.211Z,299.67
2024-04-19T09:36:49.278Z,292.83
2024-04-19T09:37:51.892Z,287.00
2024-04-19T09:38:55.210Z,285.83
2024-04-19T09:39:57.564Z,287.00
2024-04-19T09:41:00.407Z,292.50
2024-04-19T09:42:02.990Z,297.50
2024-04-19T09:43:06.904Z,312.67
2024-04-19T09:44:15.172Z,304.67
2024-04-19T09:45:20.532Z,299.67
2024-04-19T09:46:29.685Z,289.17
2024-04-19T09:47:33.702Z,265.33
2024-04-19T09:48:40.865Z,270.00
2024-04-19T09:49:47.522Z,255.50
2024-04-19T09:50:49.547Z,252.50
2024-04-19T09:51:51.696Z,257.33
2024-04-19T09:52:59.505Z,251.67
2024-04-19T09:54:10.874Z,243.00
2024-04-19T09:55:21.066Z,243.50
2024-04-19T09:56:23.094Z,238.83
2024-04-19T09:57:26.848Z,227.17
2024-04-19T09:58:29.227Z,221.00
2024-04-19T09:59:34.367Z,224.83
2024-04-19T10:00:36.765Z,221.17
2024-04-19T10:01:39.211Z,216.50
2024-04-19T10:02:43.671Z,198.33
2024-04-19T10:03:46.271Z,175.50
2024-04-19T10:04:49.204Z,158.33
2024-04-19T10:05:51.322Z,157.17
2024-04-19T10:06:54.827Z,166.50
2024-04-19T10:07:57.538Z,156.00
2024-04-19T10:08:59.967Z,140.83
2024-04-19T10:10:02.663Z,142.00
2024-04-19T10:11:05.221Z,146.17
2024-04-19T10:12:07.622Z,148.67
2024-04-19T10:13:09.746Z,139.00
2024-04-19T10:14:12.065Z,133.50
2024-04-19T10:15:14.157Z,136.50
2024-04-19T10:16:16.430Z,134.67
2024-04-19T10:17:18.476Z,144.50
2024-04-19T10:18:20.628Z,160.50
2024-04-19T10:19:22.735Z,155.17
2024-04-19T10:20:25.439Z,131.50
2024-04-19T10:21:27.636Z,127.83
2024-04-19T10:22:29.949Z,115.83
2024-04-19T10:23:31.965Z,105.33
2024-04-19T10:24:34.060Z,118.00
2024-04-19T10:25:38.211Z,122.67
2024-04-19T10:26:40.386Z,114.83
2024-04-19T10:27:45.130Z,117.67
2024-04-19T10:28:51.048Z,122.67
2024-04-19T10:29:53.083Z,127.67
2024-04-19T10:30:55.295Z,139.67
2024-04-19T10:31:57.866Z,152.50
2024-04-19T10:32:59.914Z,182.17
2024-04-19T10:34:02.331Z,187.67
2024-04-19T10:35:05.473Z,188.17
2024-04-19T10:36:10.580Z,189.17
2024-04-19T10:37:12.701Z,187.00
2024-04-19T10:38:14.750Z,195.17
2024-04-19T10:39:16.822Z,231.67
2024-04-19T10:40:22.010Z,269.33
2024-04-19T10:41:24.282Z,259.33
2024-04-19T10:42:26.872Z,252.67
2024-04-19T10:43:30.299Z,231.00
2024-04-19T10:44:32.494Z,219.50
2024-04-19T10:45:36.106Z,219.00
2024-04-19T10:46:38.140Z,217.50
2024-04-19T10:47:41.636Z,215.00
2024-04-19T10:48:43.833Z,208.83
2024-04-19T10:49:45.864Z,205.33
2024-04-19T10:50:47.948Z,210.00
2024-04-19T10:51:53.161Z,221.67
2024-04-19T10:52:56.187Z,224.50
2024-04-19T10:53:58.220Z,210.00
2024-04-19T10:55:00.598Z,191.83
2024-04-19T10:56:04.896Z,181.83
2024-04-19T10:57:06.976Z,173.67
2024-04-19T10:58:09.010Z,166.83
2024-04-19T10:59:11.062Z,169.83
2024-04-19T11:00:13.379Z,177.67
2024-04-19T11:01:15.782Z,180.50
2024-04-19T11:02:18.422Z,182.17
2024-04-19T11:03:21.031Z,206.00
2024-04-19T11:04:23.565Z,233.83
2024-04-19T11:05:25.911Z,253.33
2024-04-19T11:06:29.561Z,263.17
2024-04-19T11:07:32.221Z,257.83
2024-04-19T11:08:34.301Z,249.67
2024-04-19T11:09:36.439Z,252.17
2024-04-19T11:10:38.578Z,253.17
2024-04-19T11:11:42.640Z,248.17
2024-04-19T11:12:45.105Z,246.33
2024-04-19T11:13:47.146Z,234.17
2024-04-19T11:14:49.199Z,224.33
2024-04-19T11:15:57.904Z,214.67
2024-04-19T11:17:03.211Z,213.17
2024-04-19T11:18:07.653Z,220.00
2024-04-19T11:19:09.857Z,222.50
2024-04-19T11:20:12.167Z,221.33
2024-04-19T11:21:14.824Z,221.00
2024-04-19T11:22:17.112Z,219.33
2024-04-19T11:23:19.214Z,207.50
2024-04-19T11:24:21.267Z,205.33
2024-04-19T11:25:23.326Z,204.00
2024-04-19T11:26:25.498Z,199.17
2024-04-19T11:27:27.574Z,187.33
2024-04-19T11:28:29.640Z,182.50
2024-04-19T11:29:32.796Z,192.50
2024-04-19T11:30:38.749Z,182.17
2024-04-19T11:31:41.352Z,163.33
2024-04-19T11:32:43.410Z,142.50
2024-04-19T11:33:45.590Z,134.33
2024-04-19T11:34:47.654Z,140.17
2024-04-19T11:35:50.158Z,131.17
2024-04-19T11:36:52.882Z,105.83
2024-04-19T11:37:57.272Z,94.00
2024-04-19T11:39:00.414Z,81.83
2024-04-19T11:40:03.540Z,57.50
2024-04-19T11:41:05.634Z,49.50
2024-04-19T11:42:09.308Z,48.67
2024-04-19T11:43:11.944Z,48.33
2024-04-19T11:44:14.585Z,49.33
2024-04-19T11:45:18.338Z,44.67
2024-04-19T11:46:26.064Z,37.33
2024-04-19T11:47:28.302Z,32.33
2024-04-19T11:48:31.435Z,31.33
2024-04-19T11:49:33.960Z,30.50
2024-04-19T11:50:36.056Z,30.17
2024-04-19T11:51:38.221Z,28.67
2024-04-19T11:52:40.295Z,23.50
2024-04-19T11:53:42.414Z,18.83
2024-04-19T11:54:44.619Z,16.50
2024-04-19T11:55:53.118Z,15.00
2024-04-19T11:56:55.209Z,13.00
2024-04-19T11:57:59.108Z,13.00
2024-04-19T11:59:01.930Z,13.50
2024-04-19T12:00:04.848Z,14.67
2024-04-19T12:01:06.960Z,13.67
2024-04-19T12:02:09.010Z,12.67
2024-04-19T12:03:11.232Z,11.00
2024-04-19T12:04:13.538Z,10.00
2024-04-19T12:05:15.673Z,9.17
2024-04-19T12:06:20.810Z,8.00
2024-04-19T12:07:22.893Z,8.50
2024-04-19T12:08:25.248Z,9.83
2024-04-19T12:09:27.376Z,10.50
2024-04-19T12:10:29.811Z,10.00
2024-04-19T12:11:31.875Z,9.33
2024-04-19T12:13:09.866Z,9.00
2024-04-19T12:14:50.016Z,9.00
2024-04-19T12:16:00.121Z,9.00
2024-04-19T12:16:45.515Z,9.00
2024-04-19T12:17:53.679Z,8.67
2024-04-19T12:18:56.021Z,8.00
2024-04-19T12:20:02.282Z,8.00
2024-04-19T12:21:11.422Z,8.00
2024-04-19T12:22:15.285Z,8.00
2024-04-19T12:23:18.547Z,8.00
2024-04-19T12:24:22.462Z,8.00
2024-04-19T12:25:24.997Z,8.00
2024-04-19T12:26:27.489Z,7.83
2024-04-19T12:27:29.990Z,7.00
2024-04-19T12:28:32.874Z,7.00
2024-04-19T12:29:35.065Z,7.00
2024-04-19T12:30:37.311Z,7.00
2024-04-19T12:31:39.351Z,7.00
2024-04-19T12:32:41.592Z,7.00
2024-04-19T12:33:43.771Z,7.00
2024-04-19T12:34:45.827Z,7.00
2024-04-19T12:35:48.227Z,7.00
2024-04-19T12:36:51.220Z,7.67
2024-04-19T12:37:53.438Z,8.00
2024-04-19T12:38:55.477Z,8.00
2024-04-19T12:39:57.730Z,7.00
2024-04-19T12:40:59.805Z,7.00
2024-04-19T12:42:04.873Z,7.00
2024-04-19T12:43:07.219Z,7.00
2024-04-19T12:44:10.119Z,7.00
2024-04-19T12:45:12.137Z,7.00
2024-04-19T12:46:14.385Z,7.00
2024-04-19T12:47:17.387Z,7.00
2024-04-19T12:48:21.339Z,7.00
2024-04-19T12:49:23.518Z,6.00
2024-04-19T12:50:25.581Z,6.00
2024-04-19T12:51:27.673Z,6.00
2024-04-19T12:52:29.707Z,6.00
2024-04-19T12:53:31.796Z,6.00
2024-04-19T12:54:33.903Z,5.33
2024-04-19T12:55:36.103Z,5.00
2024-04-19T12:56:38.128Z,5.00
2024-04-19T12:57:40.189Z,5.00
2024-04-19T12:58:43.069Z,5.00
2024-04-19T12:59:46.215Z,10.83
2024-04-19T13:00:48.279Z,21.33
2024-04-19T13:01:50.691Z,19.17
2024-04-19T13:02:54.514Z,17.50
2024-04-19T13:03:56.670Z,16.50
2024-04-19T13:04:58.717Z,15.50
2024-04-19T13:06:01.047Z,14.50
2024-04-19T13:07:03.304Z,13.83
2024-04-19T13:08:05.918Z,13.00
2024-04-19T13:09:08.734Z,12.17
2024-04-19T13:10:10.788Z,11.33
2024-04-19T13:11:13.011Z,10.50
2024-04-19T13:12:15.077Z,9.50
2024-04-19T13:13:17.116Z,9.00
2024-04-19T13:14:22.127Z,8.33
2024-04-19T13:15:24.201Z,8.00
2024-04-19T13:16:27.091Z,8.00
2024-04-19T13:17:29.121Z,8.00
2024-04-19T13:18:31.204Z,8.00
2024-04-19T13:19:33.216Z,7.17
2024-04-19T13:20:35.554Z,7.00
2024-04-19T13:21:37.638Z,7.00
2024-04-19T13:22:40.855Z,7.00
2024-04-19T13:23:42.915Z,6.50